Schaeferville, Illinois
Current Conditions -  °F | °C
As of 11:54 AM on Friday 19 Dec 2014 (Local Time) from KPIA Reporting Station
Clear Clear  
Wind Chill: 32°   Ceiling: Unl
Heat Index: 32°   Visibility: 10mi
Dew Point: 19°   Wind: 3mph
Humidity: 59%   Direction: 80°E
Pressure: 30.3"   Gusts: NA
Location:  40.5452°N, 89.6011°W
Report Text: KPIA 191754Z 08003KT 10SM CLR 00/M07 A3030 RMK AO2 SLP270 I6000 T00001072 10006 21078 58014
Loading
Personal Weather Stations






























Interactive Weather Map New forecast layout! Learn more

10-Day Weather Forecast

Advertisements
Track Severe Weather on mobile